sensor_id;sensor_type;location;lat;lon;timestamp;P1;durP1;ratioP1;P2;durP2;ratioP2
66012;SDS011;52783;50.502;8.190;2023-07-02T00:00:19;4.95;;;2.50;;
66012;SDS011;52783;50.502;8.190;2023-07-02T00:02:45;5.35;;;2.17;;
66012;SDS011;52783;50.502;8.190;2023-07-02T00:05:10;3.08;;;2.28;;
66012;SDS011;52783;50.502;8.190;2023-07-02T00:07:36;4.82;;;2.20;;
66012;SDS011;52783;50.502;8.190;2023-07-02T00:10:02;7.63;;;2.35;;
66012;SDS011;52783;50.502;8.190;2023-07-02T00:12:29;7.07;;;2.10;;
66012;SDS011;52783;50.502;8.190;2023-07-02T00:14:55;5.85;;;2.75;;
66012;SDS011;52783;50.502;8.190;2023-07-02T00:17:20;3.38;;;2.45;;
66012;SDS011;52783;50.502;8.190;2023-07-02T00:19:46;3.25;;;2.47;;
66012;SDS011;52783;50.502;8.190;2023-07-02T00:22:12;2.95;;;2.38;;
66012;SDS011;52783;50.502;8.190;2023-07-02T00:24:37;6.25;;;2.65;;
66012;SDS011;52783;50.502;8.190;2023-07-02T00:27:03;10.75;;;2.55;;
66012;SDS011;52783;50.502;8.190;2023-07-02T00:29:29;3.10;;;2.50;;
66012;SDS011;52783;50.502;8.190;2023-07-02T00:31:55;4.60;;;2.38;;
66012;SDS011;52783;50.502;8.190;2023-07-02T00:34:20;2.85;;;2.40;;
66012;SDS011;52783;50.502;8.190;2023-07-02T00:36:46;2.60;;;2.25;;
66012;SDS011;52783;50.502;8.190;2023-07-02T00:39:12;6.68;;;2.45;;
66012;SDS011;52783;50.502;8.190;2023-07-02T00:41:37;3.33;;;2.40;;
66012;SDS011;52783;50.502;8.190;2023-07-02T00:44:03;2.95;;;2.28;;
66012;SDS011;52783;50.502;8.190;2023-07-02T00:46:29;9.00;;;2.20;;
66012;SDS011;52783;50.502;8.190;2023-07-02T00:48:56;3.30;;;2.40;;
66012;SDS011;52783;50.502;8.190;2023-07-02T00:51:25;4.57;;;2.15;;
66012;SDS011;52783;50.502;8.190;2023-07-02T00:53:53;4.45;;;2.33;;
66012;SDS011;52783;50.502;8.190;2023-07-02T00:56:20;5.03;;;2.42;;
66012;SDS011;52783;50.502;8.190;2023-07-02T00:58:47;3.70;;;2.30;;
66012;SDS011;52783;50.502;8.190;2023-07-02T01:01:15;6.78;;;2.17;;
66012;SDS011;52783;50.502;8.190;2023-07-02T01:03:52;6.32;;;2.42;;
66012;SDS011;52783;50.502;8.190;2023-07-02T01:06:31;4.07;;;2.60;;
66012;SDS011;52783;50.502;8.190;2023-07-02T01:08:59;4.47;;;2.15;;
66012;SDS011;52783;50.502;8.190;2023-07-02T01:11:45;3.15;;;2.45;;
66012;SDS011;52783;50.502;8.190;2023-07-02T01:14:19;3.72;;;2.45;;
66012;SDS011;52783;50.502;8.190;2023-07-02T01:16:51;5.18;;;2.50;;
66012;SDS011;52783;50.502;8.190;2023-07-02T01:19:22;2.38;;;2.15;;
66012;SDS011;52783;50.502;8.190;2023-07-02T01:22:05;3.58;;;2.15;;
66012;SDS011;52783;50.502;8.190;2023-07-02T01:24:32;7.60;;;2.22;;
66012;SDS011;52783;50.502;8.190;2023-07-02T01:26:58;3.25;;;2.20;;
66012;SDS011;52783;50.502;8.190;2023-07-02T01:29:28;5.25;;;2.40;;
66012;SDS011;52783;50.502;8.190;2023-07-02T01:31:54;9.15;;;2.63;;
66012;SDS011;52783;50.502;8.190;2023-07-02T01:34:20;7.90;;;2.40;;
66012;SDS011;52783;50.502;8.190;2023-07-02T01:36:46;2.10;;;2.00;;
66012;SDS011;52783;50.502;8.190;2023-07-02T01:39:11;3.10;;;2.25;;
66012;SDS011;52783;50.502;8.190;2023-07-02T01:41:41;11.57;;;2.80;;
66012;SDS011;52783;50.502;8.190;2023-07-02T01:44:14;2.33;;;2.10;;
66012;SDS011;52783;50.502;8.190;2023-07-02T01:46:39;3.72;;;2.53;;
66012;SDS011;52783;50.502;8.190;2023-07-02T01:49:05;6.82;;;2.40;;
66012;SDS011;52783;50.502;8.190;2023-07-02T01:51:31;12.00;;;2.55;;
66012;SDS011;52783;50.502;8.190;2023-07-02T01:53:57;3.17;;;2.17;;
66012;SDS011;52783;50.502;8.190;2023-07-02T01:56:22;2.80;;;2.10;;
66012;SDS011;52783;50.502;8.190;2023-07-02T01:58:48;8.00;;;2.50;;
66012;SDS011;52783;50.502;8.190;2023-07-02T02:01:13;8.43;;;2.80;;
66012;SDS011;52783;50.502;8.190;2023-07-02T02:03:39;7.82;;;2.60;;
66012;SDS011;52783;50.502;8.190;2023-07-02T02:06:05;5.18;;;2.20;;
66012;SDS011;52783;50.502;8.190;2023-07-02T02:08:30;9.85;;;2.50;;
66012;SDS011;52783;50.502;8.190;2023-07-02T02:10:56;2.67;;;2.47;;
66012;SDS011;52783;50.502;8.190;2023-07-02T02:13:21;4.30;;;2.60;;
66012;SDS011;52783;50.502;8.190;2023-07-02T02:15:47;5.80;;;2.65;;
66012;SDS011;52783;50.502;8.190;2023-07-02T02:18:12;10.90;;;2.92;;
66012;SDS011;52783;50.502;8.190;2023-07-02T02:20:38;8.25;;;2.70;;
66012;SDS011;52783;50.502;8.190;2023-07-02T02:23:04;6.78;;;2.63;;
66012;SDS011;52783;50.502;8.190;2023-07-02T02:25:29;3.38;;;2.55;;
66012;SDS011;52783;50.502;8.190;2023-07-02T02:27:55;6.90;;;2.70;;
66012;SDS011;52783;50.502;8.190;2023-07-02T02:30:20;5.47;;;2.47;;
66012;SDS011;52783;50.502;8.190;2023-07-02T02:32:46;7.43;;;2.60;;
66012;SDS011;52783;50.502;8.190;2023-07-02T02:35:11;3.90;;;2.63;;
66012;SDS011;52783;50.502;8.190;2023-07-02T02:37:38;5.60;;;2.47;;
66012;SDS011;52783;50.502;8.190;2023-07-02T02:40:05;5.95;;;2.60;;
66012;SDS011;52783;50.502;8.190;2023-07-02T02:45:03;5.47;;;2.53;;
66012;SDS011;52783;50.502;8.190;2023-07-02T02:47:29;4.82;;;2.70;;
66012;SDS011;52783;50.502;8.190;2023-07-02T02:49:54;3.70;;;2.42;;
66012;SDS011;52783;50.502;8.190;2023-07-02T02:52:20;2.33;;;2.13;;
66012;SDS011;52783;50.502;8.190;2023-07-02T02:54:45;7.35;;;2.78;;
66012;SDS011;52783;50.502;8.190;2023-07-02T02:57:11;5.90;;;3.13;;
66012;SDS011;52783;50.502;8.190;2023-07-02T02:59:37;4.82;;;2.55;;
66012;SDS011;52783;50.502;8.190;2023-07-02T03:02:02;7.68;;;2.92;;
66012;SDS011;52783;50.502;8.190;2023-07-02T03:04:29;3.53;;;2.90;;
66012;SDS011;52783;50.502;8.190;2023-07-02T03:06:54;5.10;;;2.80;;
66012;SDS011;52783;50.502;8.190;2023-07-02T03:09:21;8.20;;;2.90;;
66012;SDS011;52783;50.502;8.190;2023-07-02T03:11:46;8.23;;;2.90;;
66012;SDS011;52783;50.502;8.190;2023-07-02T03:14:12;10.43;;;2.97;;
66012;SDS011;52783;50.502;8.190;2023-07-02T03:16:39;5.55;;;2.90;;
66012;SDS011;52783;50.502;8.190;2023-07-02T03:19:04;6.32;;;2.88;;
66012;SDS011;52783;50.502;8.190;2023-07-02T03:21:30;6.88;;;3.13;;
66012;SDS011;52783;50.502;8.190;2023-07-02T03:23:57;11.63;;;3.28;;
66012;SDS011;52783;50.502;8.190;2023-07-02T03:26:22;8.70;;;3.28;;
66012;SDS011;52783;50.502;8.190;2023-07-02T03:28:49;5.80;;;2.75;;
66012;SDS011;52783;50.502;8.190;2023-07-02T03:31:14;7.93;;;3.13;;
66012;SDS011;52783;50.502;8.190;2023-07-02T03:33:40;8.85;;;3.42;;
66012;SDS011;52783;50.502;8.190;2023-07-02T03:36:05;8.02;;;3.65;;
66012;SDS011;52783;50.502;8.190;2023-07-02T03:38:31;9.10;;;3.47;;
66012;SDS011;52783;50.502;8.190;2023-07-02T03:40:57;7.25;;;3.88;;
66012;SDS011;52783;50.502;8.190;2023-07-02T03:43:23;6.00;;;3.72;;
66012;SDS011;52783;50.502;8.190;2023-07-02T03:45:51;8.48;;;4.03;;
66012;SDS011;52783;50.502;8.190;2023-07-02T03:48:17;7.07;;;3.63;;
66012;SDS011;52783;50.502;8.190;2023-07-02T03:50:42;11.85;;;4.03;;
66012;SDS011;52783;50.502;8.190;2023-07-02T03:53:08;11.52;;;4.40;;
66012;SDS011;52783;50.502;8.190;2023-07-02T03:55:34;7.38;;;3.85;;
66012;SDS011;52783;50.502;8.190;2023-07-02T03:57:59;11.93;;;4.07;;
66012;SDS011;52783;50.502;8.190;2023-07-02T04:00:25;7.57;;;3.80;;
66012;SDS011;52783;50.502;8.190;2023-07-02T04:02:51;17.23;;;5.13;;
66012;SDS011;52783;50.502;8.190;2023-07-02T04:05:16;15.88;;;5.22;;
66012;SDS011;52783;50.502;8.190;2023-07-02T04:07:42;9.90;;;4.90;;
66012;SDS011;52783;50.502;8.190;2023-07-02T04:10:07;9.95;;;5.05;;
66012;SDS011;52783;50.502;8.190;2023-07-02T04:12:33;11.38;;;4.75;;
66012;SDS011;52783;50.502;8.190;2023-07-02T04:14:58;12.20;;;5.10;;
66012;SDS011;52783;50.502;8.190;2023-07-02T04:17:24;18.58;;;5.13;;
66012;SDS011;52783;50.502;8.190;2023-07-02T04:19:49;14.38;;;5.30;;
66012;SDS011;52783;50.502;8.190;2023-07-02T04:22:15;15.20;;;5.05;;
66012;SDS011;52783;50.502;8.190;2023-07-02T04:24:40;13.70;;;5.60;;
66012;SDS011;52783;50.502;8.190;2023-07-02T04:27:06;16.13;;;5.63;;
66012;SDS011;52783;50.502;8.190;2023-07-02T04:29:31;14.85;;;5.53;;
66012;SDS011;52783;50.502;8.190;2023-07-02T04:31:57;21.45;;;5.72;;
66012;SDS011;52783;50.502;8.190;2023-07-02T04:34:23;14.85;;;5.38;;
66012;SDS011;52783;50.502;8.190;2023-07-02T04:36:48;14.80;;;6.10;;
66012;SDS011;52783;50.502;8.190;2023-07-02T04:39:14;17.77;;;5.93;;
66012;SDS011;52783;50.502;8.190;2023-07-02T04:41:39;16.17;;;6.20;;
66012;SDS011;52783;50.502;8.190;2023-07-02T04:44:05;14.15;;;5.32;;
66012;SDS011;52783;50.502;8.190;2023-07-02T04:46:30;18.95;;;5.30;;
66012;SDS011;52783;50.502;8.190;2023-07-02T04:48:56;13.23;;;5.40;;
66012;SDS011;52783;50.502;8.190;2023-07-02T04:51:21;14.27;;;5.70;;
66012;SDS011;52783;50.502;8.190;2023-07-02T04:53:47;13.75;;;5.43;;
66012;SDS011;52783;50.502;8.190;2023-07-02T04:56:12;15.80;;;5.90;;
66012;SDS011;52783;50.502;8.190;2023-07-02T04:58:38;12.45;;;6.18;;
66012;SDS011;52783;50.502;8.190;2023-07-02T05:01:03;13.85;;;5.78;;
66012;SDS011;52783;50.502;8.190;2023-07-02T05:03:29;12.88;;;6.00;;
66012;SDS011;52783;50.502;8.190;2023-07-02T05:05:55;16.38;;;6.20;;
66012;SDS011;52783;50.502;8.190;2023-07-02T05:08:21;13.07;;;6.03;;
66012;SDS011;52783;50.502;8.190;2023-07-02T05:10:46;16.52;;;6.15;;
66012;SDS011;52783;50.502;8.190;2023-07-02T05:13:12;11.65;;;5.70;;
66012;SDS011;52783;50.502;8.190;2023-07-02T05:15:37;13.38;;;6.45;;
66012;SDS011;52783;50.502;8.190;2023-07-02T05:18:03;14.63;;;6.95;;
66012;SDS011;52783;50.502;8.190;2023-07-02T05:20:28;16.92;;;7.15;;
66012;SDS011;52783;50.502;8.190;2023-07-02T05:22:54;11.48;;;6.18;;
66012;SDS011;52783;50.502;8.190;2023-07-02T05:25:19;13.25;;;6.75;;
66012;SDS011;52783;50.502;8.190;2023-07-02T05:27:45;22.00;;;7.03;;
66012;SDS011;52783;50.502;8.190;2023-07-02T05:30:10;16.10;;;6.65;;
66012;SDS011;52783;50.502;8.190;2023-07-02T05:32:36;14.13;;;6.97;;
66012;SDS011;52783;50.502;8.190;2023-07-02T05:35:04;18.15;;;7.18;;
66012;SDS011;52783;50.502;8.190;2023-07-02T05:37:30;21.60;;;7.20;;
66012;SDS011;52783;50.502;8.190;2023-07-02T05:39:55;19.30;;;7.80;;
66012;SDS011;52783;50.502;8.190;2023-07-02T05:42:21;18.58;;;7.10;;
66012;SDS011;52783;50.502;8.190;2023-07-02T05:44:46;16.85;;;6.95;;
66012;SDS011;52783;50.502;8.190;2023-07-02T05:47:11;20.73;;;7.38;;
66012;SDS011;52783;50.502;8.190;2023-07-02T05:49:37;16.17;;;7.22;;
66012;SDS011;52783;50.502;8.190;2023-07-02T05:52:03;23.23;;;7.88;;
66012;SDS011;52783;50.502;8.190;2023-07-02T05:54:28;21.65;;;8.05;;
66012;SDS011;52783;50.502;8.190;2023-07-02T05:56:54;17.05;;;7.93;;
66012;SDS011;52783;50.502;8.190;2023-07-02T05:59:19;16.80;;;7.18;;
66012;SDS011;52783;50.502;8.190;2023-07-02T06:01:45;15.63;;;7.40;;
66012;SDS011;52783;50.502;8.190;2023-07-02T06:04:10;22.38;;;8.65;;
66012;SDS011;52783;50.502;8.190;2023-07-02T06:06:36;22.63;;;7.75;;
66012;SDS011;52783;50.502;8.190;2023-07-02T06:09:01;26.88;;;7.93;;
66012;SDS011;52783;50.502;8.190;2023-07-02T06:11:28;22.50;;;8.43;;
66012;SDS011;52783;50.502;8.190;2023-07-02T06:13:53;18.92;;;8.00;;
66012;SDS011;52783;50.502;8.190;2023-07-02T06:16:20;25.70;;;8.35;;
66012;SDS011;52783;50.502;8.190;2023-07-02T06:18:45;19.48;;;9.00;;
66012;SDS011;52783;50.502;8.190;2023-07-02T06:21:11;21.40;;;8.75;;
66012;SDS011;52783;50.502;8.190;2023-07-02T06:23:40;26.05;;;8.50;;
66012;SDS011;52783;50.502;8.190;2023-07-02T06:26:06;21.90;;;8.55;;
66012;SDS011;52783;50.502;8.190;2023-07-02T06:28:32;18.70;;;8.05;;
66012;SDS011;52783;50.502;8.190;2023-07-02T06:30:58;17.05;;;8.35;;
66012;SDS011;52783;50.502;8.190;2023-07-02T06:33:23;19.27;;;8.52;;
66012;SDS011;52783;50.502;8.190;2023-07-02T06:35:49;17.48;;;8.55;;
66012;SDS011;52783;50.502;8.190;2023-07-02T06:38:14;30.23;;;8.93;;
66012;SDS011;52783;50.502;8.190;2023-07-02T06:40:41;18.88;;;9.00;;
66012;SDS011;52783;50.502;8.190;2023-07-02T06:43:07;19.90;;;9.15;;
66012;SDS011;52783;50.502;8.190;2023-07-02T06:45:32;20.20;;;9.15;;
66012;SDS011;52783;50.502;8.190;2023-07-02T06:47:58;20.45;;;8.63;;
66012;SDS011;52783;50.502;8.190;2023-07-02T06:50:23;16.52;;;8.80;;
66012;SDS011;52783;50.502;8.190;2023-07-02T06:52:49;22.35;;;9.10;;
66012;SDS011;52783;50.502;8.190;2023-07-02T06:55:14;22.13;;;9.60;;
66012;SDS011;52783;50.502;8.190;2023-07-02T06:57:43;23.23;;;10.57;;
66012;SDS011;52783;50.502;8.190;2023-07-02T07:00:10;24.98;;;10.45;;
66012;SDS011;52783;50.502;8.190;2023-07-02T07:02:39;22.52;;;10.82;;
66012;SDS011;52783;50.502;8.190;2023-07-02T07:05:05;20.02;;;9.50;;
66012;SDS011;52783;50.502;8.190;2023-07-02T07:07:31;20.88;;;10.93;;
66012;SDS011;52783;50.502;8.190;2023-07-02T07:09:57;23.20;;;10.75;;
66012;SDS011;52783;50.502;8.190;2023-07-02T07:12:22;20.92;;;9.52;;
66012;SDS011;52783;50.502;8.190;2023-07-02T07:14:48;21.45;;;9.90;;
66012;SDS011;52783;50.502;8.190;2023-07-02T07:17:14;20.52;;;9.93;;
66012;SDS011;52783;50.502;8.190;2023-07-02T07:19:39;22.90;;;10.38;;
66012;SDS011;52783;50.502;8.190;2023-07-02T07:22:05;26.40;;;10.02;;
66012;SDS011;52783;50.502;8.190;2023-07-02T07:24:31;24.17;;;10.35;;
66012;SDS011;52783;50.502;8.190;2023-07-02T07:26:56;17.92;;;9.88;;
66012;SDS011;52783;50.502;8.190;2023-07-02T07:29:22;22.98;;;10.55;;
66012;SDS011;52783;50.502;8.190;2023-07-02T07:31:47;21.10;;;9.93;;
66012;SDS011;52783;50.502;8.190;2023-07-02T07:34:13;19.52;;;10.88;;
66012;SDS011;52783;50.502;8.190;2023-07-02T07:36:38;24.90;;;11.10;;
66012;SDS011;52783;50.502;8.190;2023-07-02T07:39:04;24.17;;;10.95;;
66012;SDS011;52783;50.502;8.190;2023-07-02T07:41:29;27.38;;;10.60;;
66012;SDS011;52783;50.502;8.190;2023-07-02T07:43:55;26.63;;;11.35;;
66012;SDS011;52783;50.502;8.190;2023-07-02T07:46:20;21.73;;;10.82;;
66012;SDS011;52783;50.502;8.190;2023-07-02T07:48:46;23.73;;;11.07;;
66012;SDS011;52783;50.502;8.190;2023-07-02T07:54:49;21.65;;;11.10;;
66012;SDS011;52783;50.502;8.190;2023-07-02T07:57:14;22.55;;;11.02;;
66012;SDS011;52783;50.502;8.190;2023-07-02T07:59:40;19.70;;;10.63;;
66012;SDS011;52783;50.502;8.190;2023-07-02T08:02:05;25.50;;;11.25;;
66012;SDS011;52783;50.502;8.190;2023-07-02T08:04:31;23.65;;;11.25;;
66012;SDS011;52783;50.502;8.190;2023-07-02T08:06:57;23.60;;;10.90;;
66012;SDS011;52783;50.502;8.190;2023-07-02T08:09:23;21.83;;;11.02;;
66012;SDS011;52783;50.502;8.190;2023-07-02T08:11:49;30.05;;;10.52;;
66012;SDS011;52783;50.502;8.190;2023-07-02T08:14:16;20.98;;;11.02;;
66012;SDS011;52783;50.502;8.190;2023-07-02T08:16:42;19.88;;;10.63;;
66012;SDS011;52783;50.502;8.190;2023-07-02T08:19:09;27.55;;;10.98;;
66012;SDS011;52783;50.502;8.190;2023-07-02T08:21:34;26.02;;;11.23;;
66012;SDS011;52783;50.502;8.190;2023-07-02T08:24:00;24.00;;;11.68;;
66012;SDS011;52783;50.502;8.190;2023-07-02T08:26:26;26.80;;;10.77;;
66012;SDS011;52783;50.502;8.190;2023-07-02T08:28:51;21.95;;;11.52;;
66012;SDS011;52783;50.502;8.190;2023-07-02T08:31:17;22.42;;;11.55;;
66012;SDS011;52783;50.502;8.190;2023-07-02T08:33:42;18.30;;;10.25;;
66012;SDS011;52783;50.502;8.190;2023-07-02T08:36:08;30.00;;;10.98;;
66012;SDS011;52783;50.502;8.190;2023-07-02T08:38:33;22.98;;;10.52;;
66012;SDS011;52783;50.502;8.190;2023-07-02T08:40:59;17.58;;;10.82;;
66012;SDS011;52783;50.502;8.190;2023-07-02T08:43:25;22.10;;;11.18;;
66012;SDS011;52783;50.502;8.190;2023-07-02T08:45:52;26.33;;;11.48;;
66012;SDS011;52783;50.502;8.190;2023-07-02T08:48:18;23.58;;;11.23;;
66012;SDS011;52783;50.502;8.190;2023-07-02T08:50:48;22.67;;;10.40;;
66012;SDS011;52783;50.502;8.190;2023-07-02T08:53:14;21.20;;;10.25;;
66012;SDS011;52783;50.502;8.190;2023-07-02T08:55:40;17.58;;;10.85;;
66012;SDS011;52783;50.502;8.190;2023-07-02T08:58:05;20.67;;;10.25;;
66012;SDS011;52783;50.502;8.190;2023-07-02T09:00:31;22.02;;;11.00;;
66012;SDS011;52783;50.502;8.190;2023-07-02T09:03:12;19.70;;;10.40;;
66012;SDS011;52783;50.502;8.190;2023-07-02T09:05:51;18.70;;;9.48;;
66012;SDS011;52783;50.502;8.190;2023-07-02T09:08:24;18.67;;;9.63;;
66012;SDS011;52783;50.502;8.190;2023-07-02T09:10:50;17.45;;;10.60;;
66012;SDS011;52783;50.502;8.190;2023-07-02T09:13:15;19.00;;;9.55;;
66012;SDS011;52783;50.502;8.190;2023-07-02T09:15:41;19.90;;;10.20;;
66012;SDS011;52783;50.502;8.190;2023-07-02T09:18:14;19.17;;;9.70;;
66012;SDS011;52783;50.502;8.190;2023-07-02T09:20:49;21.77;;;9.98;;
66012;SDS011;52783;50.502;8.190;2023-07-02T09:23:15;23.35;;;10.32;;
66012;SDS011;52783;50.502;8.190;2023-07-02T09:25:41;20.27;;;10.32;;
66012;SDS011;52783;50.502;8.190;2023-07-02T09:28:14;20.13;;;10.23;;
66012;SDS011;52783;50.502;8.190;2023-07-02T09:33:19;24.23;;;10.07;;
66012;SDS011;52783;50.502;8.190;2023-07-02T09:35:44;20.67;;;10.57;;
66012;SDS011;52783;50.502;8.190;2023-07-02T09:38:10;21.48;;;10.35;;
66012;SDS011;52783;50.502;8.190;2023-07-02T09:40:37;23.08;;;10.55;;
66012;SDS011;52783;50.502;8.190;2023-07-02T09:43:14;25.00;;;11.23;;
66012;SDS011;52783;50.502;8.190;2023-07-02T09:45:42;20.08;;;10.20;;
66012;SDS011;52783;50.502;8.190;2023-07-02T09:48:10;21.13;;;10.75;;
66012;SDS011;52783;50.502;8.190;2023-07-02T09:50:49;21.52;;;10.05;;
66012;SDS011;52783;50.502;8.190;2023-07-02T09:53:15;21.52;;;10.32;;
66012;SDS011;52783;50.502;8.190;2023-07-02T09:55:43;22.45;;;9.80;;
66012;SDS011;52783;50.502;8.190;2023-07-02T09:58:09;18.65;;;9.63;;
66012;SDS011;52783;50.502;8.190;2023-07-02T10:00:37;21.02;;;10.35;;
66012;SDS011;52783;50.502;8.190;2023-07-02T10:03:03;21.17;;;10.40;;
66012;SDS011;52783;50.502;8.190;2023-07-02T10:05:29;23.45;;;11.13;;
66012;SDS011;52783;50.502;8.190;2023-07-02T10:07:56;18.67;;;9.15;;
66012;SDS011;52783;50.502;8.190;2023-07-02T10:10:29;22.73;;;10.43;;
66012;SDS011;52783;50.502;8.190;2023-07-02T10:12:55;19.65;;;10.43;;
66012;SDS011;52783;50.502;8.190;2023-07-02T10:15:25;23.67;;;11.07;;
66012;SDS011;52783;50.502;8.190;2023-07-02T10:17:55;23.27;;;10.55;;
66012;SDS011;52783;50.502;8.190;2023-07-02T10:20:32;23.17;;;10.52;;
66012;SDS011;52783;50.502;8.190;2023-07-02T10:23:02;21.10;;;10.20;;
66012;SDS011;52783;50.502;8.190;2023-07-02T10:25:33;21.73;;;10.73;;
66012;SDS011;52783;50.502;8.190;2023-07-02T10:28:13;20.83;;;10.13;;
66012;SDS011;52783;50.502;8.190;2023-07-02T10:30:39;25.20;;;10.05;;
66012;SDS011;52783;50.502;8.190;2023-07-02T10:33:15;22.52;;;11.10;;
66012;SDS011;52783;50.502;8.190;2023-07-02T10:35:43;21.88;;;10.32;;
66012;SDS011;52783;50.502;8.190;2023-07-02T10:38:17;22.42;;;10.43;;
66012;SDS011;52783;50.502;8.190;2023-07-02T10:40:48;20.25;;;10.35;;
66012;SDS011;52783;50.502;8.190;2023-07-02T10:43:25;18.85;;;9.57;;
66012;SDS011;52783;50.502;8.190;2023-07-02T10:45:54;19.45;;;9.63;;
66012;SDS011;52783;50.502;8.190;2023-07-02T10:48:20;20.23;;;10.30;;
66012;SDS011;52783;50.502;8.190;2023-07-02T10:50:46;22.45;;;9.32;;
66012;SDS011;52783;50.502;8.190;2023-07-02T10:53:15;18.60;;;9.23;;
66012;SDS011;52783;50.502;8.190;2023-07-02T10:55:42;29.77;;;9.55;;
66012;SDS011;52783;50.502;8.190;2023-07-02T10:58:08;19.58;;;9.40;;
66012;SDS011;52783;50.502;8.190;2023-07-02T11:00:45;18.10;;;9.98;;
66012;SDS011;52783;50.502;8.190;2023-07-02T11:03:18;18.23;;;9.30;;
66012;SDS011;52783;50.502;8.190;2023-07-02T11:05:49;19.77;;;9.07;;
66012;SDS011;52783;50.502;8.190;2023-07-02T11:08:15;17.10;;;8.65;;
66012;SDS011;52783;50.502;8.190;2023-07-02T11:10:41;16.05;;;8.90;;
66012;SDS011;52783;50.502;8.190;2023-07-02T11:13:11;20.42;;;9.07;;
66012;SDS011;52783;50.502;8.190;2023-07-02T11:15:43;20.35;;;9.23;;
66012;SDS011;52783;50.502;8.190;2023-07-02T11:18:12;21.27;;;9.68;;
66012;SDS011;52783;50.502;8.190;2023-07-02T11:20:41;22.20;;;9.65;;
66012;SDS011;52783;50.502;8.190;2023-07-02T11:23:21;15.73;;;8.70;;
66012;SDS011;52783;50.502;8.190;2023-07-02T11:28:24;16.92;;;8.48;;
66012;SDS011;52783;50.502;8.190;2023-07-02T11:30:50;23.23;;;9.05;;
66012;SDS011;52783;50.502;8.190;2023-07-02T11:33:15;19.52;;;9.07;;
66012;SDS011;52783;50.502;8.190;2023-07-02T11:35:41;20.92;;;9.20;;
66012;SDS011;52783;50.502;8.190;2023-07-02T11:38:08;13.10;;;8.50;;
66012;SDS011;52783;50.502;8.190;2023-07-02T11:40:37;14.70;;;8.35;;
66012;SDS011;52783;50.502;8.190;2023-07-02T11:43:03;21.00;;;8.85;;
66012;SDS011;52783;50.502;8.190;2023-07-02T11:45:30;20.15;;;8.50;;
66012;SDS011;52783;50.502;8.190;2023-07-02T11:47:56;22.08;;;8.85;;
66012;SDS011;52783;50.502;8.190;2023-07-02T11:50:21;28.02;;;9.88;;
66012;SDS011;52783;50.502;8.190;2023-07-02T11:52:47;19.27;;;8.93;;
66012;SDS011;52783;50.502;8.190;2023-07-02T11:55:12;15.73;;;8.48;;
66012;SDS011;52783;50.502;8.190;2023-07-02T12:07:44;17.63;;;7.72;;
66012;SDS011;52783;50.502;8.190;2023-07-02T12:10:09;19.05;;;8.95;;
66012;SDS011;52783;50.502;8.190;2023-07-02T12:12:35;27.40;;;9.13;;
66012;SDS011;52783;50.502;8.190;2023-07-02T12:15:01;16.85;;;9.25;;
66012;SDS011;52783;50.502;8.190;2023-07-02T12:17:27;16.15;;;8.75;;
66012;SDS011;52783;50.502;8.190;2023-07-02T12:19:52;18.25;;;9.82;;
66012;SDS011;52783;50.502;8.190;2023-07-02T12:22:18;21.38;;;9.05;;
66012;SDS011;52783;50.502;8.190;2023-07-02T12:24:46;15.25;;;8.73;;
66012;SDS011;52783;50.502;8.190;2023-07-02T12:27:12;18.17;;;8.73;;
66012;SDS011;52783;50.502;8.190;2023-07-02T12:29:37;20.10;;;8.68;;
66012;SDS011;52783;50.502;8.190;2023-07-02T12:32:03;22.33;;;7.97;;
66012;SDS011;52783;50.502;8.190;2023-07-02T12:34:30;18.42;;;8.73;;
66012;SDS011;52783;50.502;8.190;2023-07-02T12:36:56;24.13;;;8.68;;
66012;SDS011;52783;50.502;8.190;2023-07-02T12:39:22;13.80;;;8.48;;
66012;SDS011;52783;50.502;8.190;2023-07-02T12:41:47;17.30;;;8.48;;
66012;SDS011;52783;50.502;8.190;2023-07-02T12:44:13;23.08;;;8.68;;
66012;SDS011;52783;50.502;8.190;2023-07-02T12:46:38;16.77;;;7.78;;
66012;SDS011;52783;50.502;8.190;2023-07-02T12:49:04;21.85;;;8.43;;
66012;SDS011;52783;50.502;8.190;2023-07-02T12:51:30;15.73;;;8.30;;
66012;SDS011;52783;50.502;8.190;2023-07-02T12:53:55;24.77;;;9.00;;
66012;SDS011;52783;50.502;8.190;2023-07-02T12:56:21;19.08;;;9.55;;
66012;SDS011;52783;50.502;8.190;2023-07-02T12:58:47;14.90;;;8.07;;
66012;SDS011;52783;50.502;8.190;2023-07-02T13:01:12;26.20;;;8.43;;
66012;SDS011;52783;50.502;8.190;2023-07-02T13:03:38;16.42;;;8.50;;
66012;SDS011;52783;50.502;8.190;2023-07-02T13:06:10;19.00;;;8.88;;
66012;SDS011;52783;50.502;8.190;2023-07-02T13:08:35;19.88;;;8.68;;
66012;SDS011;52783;50.502;8.190;2023-07-02T13:11:01;18.30;;;8.50;;
66012;SDS011;52783;50.502;8.190;2023-07-02T13:13:26;17.48;;;9.00;;
66012;SDS011;52783;50.502;8.190;2023-07-02T13:15:52;18.30;;;8.60;;
66012;SDS011;52783;50.502;8.190;2023-07-02T13:18:17;18.85;;;9.00;;
66012;SDS011;52783;50.502;8.190;2023-07-02T13:20:43;25.15;;;9.02;;
66012;SDS011;52783;50.502;8.190;2023-07-02T13:23:08;16.05;;;9.52;;
66012;SDS011;52783;50.502;8.190;2023-07-02T13:25:34;21.40;;;8.93;;
66012;SDS011;52783;50.502;8.190;2023-07-02T13:27:59;14.63;;;8.77;;
66012;SDS011;52783;50.502;8.190;2023-07-02T13:30:25;20.02;;;9.20;;
66012;SDS011;52783;50.502;8.190;2023-07-02T13:32:52;19.73;;;10.07;;
66012;SDS011;52783;50.502;8.190;2023-07-02T13:35:17;22.30;;;9.80;;
66012;SDS011;52783;50.502;8.190;2023-07-02T13:37:43;19.23;;;9.65;;
66012;SDS011;52783;50.502;8.190;2023-07-02T13:40:08;21.70;;;9.80;;
66012;SDS011;52783;50.502;8.190;2023-07-02T13:42:37;20.90;;;9.85;;
66012;SDS011;52783;50.502;8.190;2023-07-02T13:45:03;17.95;;;10.20;;
66012;SDS011;52783;50.502;8.190;2023-07-02T13:47:29;20.58;;;10.00;;
66012;SDS011;52783;50.502;8.190;2023-07-02T13:49:54;19.00;;;9.93;;
66012;SDS011;52783;50.502;8.190;2023-07-02T13:52:20;20.10;;;10.60;;
66012;SDS011;52783;50.502;8.190;2023-07-02T13:54:45;20.38;;;9.95;;
66012;SDS011;52783;50.502;8.190;2023-07-02T13:57:11;19.83;;;9.15;;
66012;SDS011;52783;50.502;8.190;2023-07-02T13:59:36;20.75;;;8.55;;
66012;SDS011;52783;50.502;8.190;2023-07-02T14:02:02;16.48;;;8.73;;
66012;SDS011;52783;50.502;8.190;2023-07-02T14:04:28;16.88;;;8.77;;
66012;SDS011;52783;50.502;8.190;2023-07-02T14:06:53;22.48;;;9.45;;
66012;SDS011;52783;50.502;8.190;2023-07-02T14:09:19;22.60;;;9.15;;
66012;SDS011;52783;50.502;8.190;2023-07-02T14:11:45;16.23;;;9.48;;
66012;SDS011;52783;50.502;8.190;2023-07-02T14:14:10;17.90;;;9.85;;
66012;SDS011;52783;50.502;8.190;2023-07-02T14:16:36;25.08;;;10.38;;
66012;SDS011;52783;50.502;8.190;2023-07-02T14:19:01;18.52;;;9.52;;
66012;SDS011;52783;50.502;8.190;2023-07-02T14:21:27;16.75;;;8.23;;
66012;SDS011;52783;50.502;8.190;2023-07-02T14:23:53;18.60;;;9.18;;
66012;SDS011;52783;50.502;8.190;2023-07-02T14:26:18;16.90;;;8.70;;
66012;SDS011;52783;50.502;8.190;2023-07-02T14:28:44;15.95;;;9.07;;
66012;SDS011;52783;50.502;8.190;2023-07-02T14:31:09;20.90;;;9.48;;
66012;SDS011;52783;50.502;8.190;2023-07-02T14:33:35;17.33;;;9.30;;
66012;SDS011;52783;50.502;8.190;2023-07-02T14:36:02;17.60;;;9.27;;
66012;SDS011;52783;50.502;8.190;2023-07-02T14:38:28;20.83;;;9.23;;
66012;SDS011;52783;50.502;8.190;2023-07-02T14:40:54;23.77;;;10.77;;
66012;SDS011;52783;50.502;8.190;2023-07-02T14:43:21;21.88;;;9.57;;
66012;SDS011;52783;50.502;8.190;2023-07-02T14:45:50;20.45;;;10.35;;
66012;SDS011;52783;50.502;8.190;2023-07-02T14:48:17;18.77;;;10.35;;
66012;SDS011;52783;50.502;8.190;2023-07-02T14:50:53;19.42;;;9.80;;
66012;SDS011;52783;50.502;8.190;2023-07-02T14:53:20;18.80;;;10.05;;